Weather History for Paynesville, MN

Change the Weather History Date:

Thursday, October 4, 2012

  Actual Average (KLJF) Record (KLJF)
Temperature  
Mean Temperature 50 °F -  
Max Temperature 63 °F 66 °F 83 °F (1963)
Min Temperature 37 °F 42 °F 24 °F (1989)
Degree Days  
Heating Degree Days 15    
Moisture  
Dew Point 32 °F    
Average Humidity 65    
Maximum Humidity 84    
Minimum Humidity 33    
Precipitation  
Precipitation 0.00 in - - ()
Sea Level Pressure  
Sea Level Pressure 29.99 in    
Wind  
Wind Speed 19 mph (West)    
Max Wind Speed 32 mph    
Max Gust Speed 43 mph    
Visibility 9 miles    
Events      
Averages and records for this station are not official NWS values.
T = Trace of Precipitation, MM = Missing Value Source: NWS Daily Summary

Daily Weather History Graph

Daily Weather History Graph

Search for Another Location

Airport:

Trip Planner

Search our weather history database for the weather conditions in past years. The results will help you decide how hot, cold, wet, or windy it might be!

Date:

Astronomy

Oct. 04, 2012 Rise Set
Actual Time 7:21 AM CDT 6:52 PM CDT
Civil Twilight 6:52 AM CDT 7:22 PM CDT
Nautical Twilight 6:17 AM CDT 7:56 PM CDT
Astronomical Twilight 5:43 AM CDT 8:30 PM CDT
Moon 9:15 PM CDT (10/4) 11:52 AM CDT (10/4)
Length of Visible Light 12h 30m
Length of Day
11h 31m
Waning Gibbous, 82% of the Moon is Illuminated
Oct 4
Waning Gibbous
Oct 8
Last Quarter
Oct 15
New
Oct 21
First Quarter
Oct 29
Full

Hourly Weather History & Observations

Time (CDT) Temp. Windchill Dew Point Humidity Pressure Visibility Wind Dir Wind Speed Gust Speed Precip Events Conditions
12:13 AM 63.5 °F - 38.1 °F 39% 29.75 in 10.0 mi SE 9.2 mph - N/A   Clear
12:34 AM 63.5 °F - 37.2 °F 38% 29.74 in 10.0 mi SE 10.4 mph - N/A   Clear
12:54 AM 62.8 °F - 37.2 °F 39% 29.72 in 10.0 mi SE 10.4 mph - N/A   Clear
1:13 AM 62.6 °F - 37.9 °F 40% 29.72 in 10.0 mi SE 10.4 mph 16.1 mph N/A   Clear
1:33 AM 62.1 °F - 36.9 °F 39% 29.71 in 10.0 mi SE 11.5 mph - N/A   Clear
1:54 AM 63.5 °F - 33.6 °F 33% 29.70 in 10.0 mi SSE 15.0 mph 23.0 mph N/A   Clear
2:13 AM 62.1 °F - 32.9 °F 34% 29.70 in 10.0 mi South 12.7 mph 23.0 mph N/A   Clear
2:33 AM 55.9 °F - 37.6 °F 50% 29.72 in 7.0 mi SSW 17.3 mph 28.8 mph N/A   Clear
2:54 AM 52.0 °F - 39.0 °F 61% 29.73 in 7.0 mi SSW 18.4 mph 32.2 mph N/A   Clear
3:14 AM 49.6 °F - 39.7 °F 69% 29.74 in 10.0 mi SW 20.7 mph 28.8 mph N/A   Clear
3:33 AM 46.8 °F - 39.6 °F 76% 29.75 in 10.0 mi SW 20.7 mph 27.6 mph N/A   Clear
3:53 AM 46.2 °F 37.9 °F 39.7 °F 78% 29.76 in 10.0 mi WSW 24.2 mph 28.8 mph N/A   Mostly Cloudy
4:14 AM 46.2 °F 37.3 °F 39.6 °F 78% 29.78 in 10.0 mi WSW 27.6 mph 34.5 mph N/A   Overcast
4:34 AM 45.5 °F 36.3 °F 39.2 °F 79% 29.79 in 7.0 mi WSW 27.6 mph 38.0 mph N/A   Overcast
4:53 AM 44.8 °F 35.5 °F 39.0 °F 80% 29.79 in 7.0 mi WSW 26.5 mph 36.8 mph N/A   Overcast
5:14 AM 44.6 °F 34.9 °F 38.7 °F 80% 29.81 in 7.0 mi West 28.8 mph 34.5 mph N/A   Overcast
5:33 AM 43.7 °F 34.5 °F 38.7 °F 82% 29.83 in 10.0 mi West 24.2 mph 35.7 mph N/A   Overcast
5:53 AM 43.0 °F 32.2 °F 38.3 °F 84% 29.82 in 7.0 mi West 32.2 mph 39.1 mph N/A   Overcast
6:14 AM 42.4 °F 32.8 °F 37.4 °F 82% 29.84 in 7.0 mi West 24.2 mph 36.8 mph N/A   Overcast
6:34 AM 40.6 °F 29.8 °F 36.1 °F 84% 29.86 in 10.0 mi West 27.6 mph 35.7 mph N/A   Overcast
6:53 AM 39.2 °F 28.3 °F 34.5 °F 83% 29.87 in 10.0 mi West 25.3 mph 36.8 mph N/A   Overcast
7:14 AM 38.3 °F 26.4 °F 33.1 °F 81% 29.89 in 10.0 mi West 28.8 mph 36.8 mph N/A   Overcast
7:38 AM 37.6 °F 26.3 °F 32.4 °F 81% 29.89 in 10.0 mi West 24.2 mph 34.5 mph N/A   Overcast
7:53 AM 37.6 °F 26.3 °F 32.0 °F 80% 29.90 in 10.0 mi West 24.2 mph 31.1 mph N/A   Overcast
8:14 AM 37.4 °F 26.1 °F 32.0 °F 81% 29.91 in 10.0 mi West 24.2 mph 33.4 mph N/A   Overcast
8:34 AM 38.1 °F 26.8 °F 32.0 °F 79% 29.92 in 7.0 mi West 25.3 mph 36.8 mph N/A   Overcast
8:53 AM 37.8 °F 25.2 °F 32.0 °F 80% 29.93 in 5.0 mi West 31.1 mph 38.0 mph N/A   Haze
9:14 AM 37.6 °F 25.9 °F 32.0 °F 80% 29.94 in 4.0 mi West 26.5 mph 38.0 mph N/A   Haze
9:34 AM 37.6 °F 26.9 °F 32.0 °F 80% 29.95 in 5.0 mi West 21.9 mph 39.1 mph N/A   Haze
9:53 AM 38.3 °F 26.0 °F 31.8 °F 77% 29.97 in 10.0 mi West 31.1 mph 40.3 mph N/A   Overcast
10:14 AM 37.8 °F 26.3 °F 32.0 °F 80% 29.98 in 5.0 mi West 25.3 mph 38.0 mph N/A   Haze
10:33 AM 38.8 °F 27.6 °F 31.6 °F 75% 29.99 in 7.0 mi West 26.5 mph 36.8 mph N/A   Overcast
10:54 AM 39.4 °F 28.7 °F 31.1 °F 72% 30.00 in 7.0 mi West 24.2 mph 39.1 mph N/A   Overcast
11:14 AM 39.9 °F 28.8 °F 30.9 °F 70% 30.00 in 7.0 mi West 27.6 mph 39.1 mph N/A   Overcast
11:33 AM 41.2 °F 30.3 °F 31.1 °F 67% 30.01 in 7.0 mi West 28.8 mph 38.0 mph N/A   Overcast
11:53 AM 41.5 °F 30.8 °F 30.9 °F 66% 30.02 in 5.0 mi WNW 28.8 mph 39.1 mph N/A   Haze
12:14 PM 41.5 °F 30.8 °F 30.6 °F 65% 30.03 in 7.0 mi West 28.8 mph 36.8 mph N/A   Overcast
12:34 PM 42.1 °F 31.9 °F 30.7 °F 64% 30.04 in 7.0 mi WNW 26.5 mph 33.4 mph N/A   Overcast
12:54 PM 42.4 °F 31.4 °F 30.2 °F 62% 30.05 in 5.0 mi West 32.2 mph 40.3 mph N/A   Haze
1:13 PM 43.7 °F 34.1 °F 30.2 °F 59% 30.06 in 7.0 mi West 26.5 mph 35.7 mph N/A   Overcast
1:34 PM 43.5 °F 33.1 °F 29.5 °F 58% 30.07 in 5.0 mi West 31.1 mph 42.6 mph N/A   Haze
1:53 PM 43.0 °F 33.5 °F 29.8 °F 60% 30.08 in 10.0 mi West 24.2 mph 35.7 mph N/A   Overcast
2:13 PM 44.1 °F 34.6 °F 29.3 °F 56% 30.08 in 10.0 mi West 26.5 mph 38.0 mph N/A   Overcast
2:34 PM 43.5 °F 33.8 °F 29.7 °F 58% 30.09 in 10.0 mi West 26.5 mph 33.4 mph N/A   Overcast
2:53 PM 43.0 °F 33.3 °F 29.3 °F 59% 30.09 in 10.0 mi WNW 25.3 mph 33.4 mph N/A   Overcast
3:13 PM 42.8 °F 32.7 °F 29.3 °F 59% 30.10 in 10.0 mi West 27.6 mph 36.8 mph N/A   Overcast
3:34 PM 42.8 °F 34.0 °F 29.1 °F 58% 30.11 in 10.0 mi West 20.7 mph 35.7 mph N/A   Overcast
3:53 PM 42.8 °F 33.8 °F 29.1 °F 58% 30.11 in 10.0 mi West 21.9 mph 39.1 mph N/A   Overcast
4:13 PM 42.8 °F 33.5 °F 28.8 °F 58% 30.11 in 10.0 mi West 23.0 mph 32.2 mph N/A   Overcast
4:33 PM 42.8 °F 33.1 °F 28.4 °F 57% 30.12 in 10.0 mi WNW 25.3 mph 33.4 mph N/A   Overcast
4:54 PM 43.0 °F 34.2 °F 28.4 °F 56% 30.13 in 10.0 mi West 20.7 mph 28.8 mph N/A   Overcast
5:14 PM 42.6 °F 33.3 °F 28.2 °F 57% 30.13 in 10.0 mi West 23.0 mph 34.5 mph N/A   Overcast
5:33 PM 42.3 °F 32.6 °F 28.4 °F 58% 30.14 in 10.0 mi West 24.2 mph 34.5 mph N/A   Overcast
5:54 PM 42.1 °F 32.6 °F 27.9 °F 57% 30.14 in 10.0 mi West 23.0 mph 34.5 mph N/A   Overcast
6:14 PM 42.1 °F 34.2 °F 27.5 °F 56% 30.14 in 10.0 mi WNW 16.1 mph 31.1 mph N/A   Overcast
6:33 PM 42.1 °F 34.2 °F 28.2 °F 58% 30.14 in 10.0 mi WNW 16.1 mph 32.2 mph N/A   Overcast
6:53 PM 41.9 °F 34.6 °F 28.6 °F 59% 30.14 in 10.0 mi WNW 13.8 mph 25.3 mph N/A   Overcast
7:14 PM 41.7 °F 34.4 °F 29.1 °F 61% 30.15 in 10.0 mi WNW 13.8 mph 23.0 mph N/A   Overcast
7:33 PM 41.2 °F 33.7 °F 28.8 °F 61% 30.15 in 10.0 mi West 13.8 mph 25.3 mph N/A   Mostly Cloudy
7:53 PM 41.0 °F 33.5 °F 29.1 °F 63% 30.15 in 10.0 mi WNW 13.8 mph - N/A   Mostly Cloudy
8:14 PM 41.0 °F 32.8 °F 29.7 °F 64% 30.15 in 10.0 mi West 16.1 mph 25.3 mph N/A   Overcast
8:34 PM 40.1 °F 32.0 °F 30.0 °F 67% 30.16 in 10.0 mi West 15.0 mph 25.3 mph N/A   Mostly Cloudy
8:53 PM 39.9 °F 31.4 °F 30.2 °F 68% 30.16 in 10.0 mi West 16.1 mph 23.0 mph N/A   Scattered Clouds
9:14 PM 39.6 °F 31.3 °F 30.9 °F 71% 30.16 in 10.0 mi West 15.0 mph 21.9 mph N/A   Mostly Cloudy
9:34 PM 39.6 °F 31.3 °F 30.7 °F 71% 30.17 in 10.0 mi West 15.0 mph 28.8 mph N/A   Overcast
9:53 PM 39.2 °F 30.8 °F 30.2 °F 70% 30.17 in 10.0 mi West 15.0 mph 19.6 mph N/A   Mostly Cloudy
10:14 PM 39.6 °F 31.0 °F 29.3 °F 67% 30.17 in 10.0 mi WNW 16.1 mph 19.6 mph N/A   Mostly Cloudy
10:34 PM 40.1 °F 31.0 °F 29.8 °F 67% 30.17 in 10.0 mi West 18.4 mph 24.2 mph N/A   Overcast
10:53 PM 39.9 °F 31.1 °F 29.1 °F 65% 30.18 in 10.0 mi West 17.3 mph 25.3 mph N/A   Overcast
11:14 PM 39.4 °F 31.4 °F 30.2 °F 70% 30.17 in 10.0 mi West 13.8 mph 24.2 mph N/A   Overcast
11:34 PM 39.2 °F 29.8 °F 29.8 °F 69% 30.18 in 10.0 mi West 18.4 mph 23.0 mph N/A   Overcast
11:53 PM 39.6 °F 30.3 °F 28.9 °F 66% 30.18 in 10.0 mi WNW 18.4 mph 26.5 mph N/A   Overcast